Kyoto, Japan

11:38 PM JST on October 23, 2014 (GMT +0900)
Kyoto | Change Station
CLOSE
Current Station
Personal Weather Station
Location: Kyoto, KYOTO
Elevation: 115 ft
Nearby Weather Stations

Elev 115 ft 34.93 °N, 135.76 °E | Updated 8 minutes ago

Clear
Clear
56.0 °F
Feels Like 56.0 °F
N
0.9
Wind Variable Wind from SE

Today
High -- | Low -- °F
--% Chance of Precip.
Yesterday
High -- | Low -- °F
Precip. -- in
6:09 AM 5:13 PM
Waning Crescent, 0% visible
Pressure 30.09 in
Visibility -9999.0 miles
Clouds
Dew Point 50 °F
Humidity 81%
Rainfall -999.00 in
Snow Depth Not available.
UV 0.0 out of 12
Pollen Not available.
Air Quality Not available.
Flu Activity Not available.
METAR RJBE 231200Z 02001KT CAVOK 14/08 Q1019

More Conditions Fewer Conditions

Pressure 30.09 in
Visibility -9999.0 miles
Clouds
Dew Point 50 °F
Humidity 81%
Rainfall -999.00 in
Snow Depth Not available.
UV 0.0 out of 12
Pollen Not available.
Air Quality Not available.
Flu Activity Not available.
METAR RJBE 231200Z 02001KT CAVOK 14/08 Q1019

More Conditions Fewer Conditions

10-Day Weather Forecast

Almanac

Astronomy

Oct. 23, 2014 Rise Set
Actual Time 6:09 AM JST 5:13 PM JST
Civil Twilight 5:43 AM JST 5:38 PM JST
Nautical Twilight 5:14 AM JST 6:08 PM JST
Astronomical Twilight 4:44 AM JST 6:37 PM JST
Moon 5:14 AM JST 4:51 PM JST
Length of Visible Light 11h 55m
Length of Day
11h 03m
Tomorrow will be 2m 2s shorter.
Waning Crescent, 0% of the Moon is Illuminated
Today
Waning Crescent
Oct 23
New
Oct 30
First Quarter
Nov 6
Full
Nov 14
Last Quarter

Today's Extremes

Country Highs Country Lows

Community

WunderPhotos

Upload Photos

1,764,268 photos uploaded!

WunderBlogs® & News

Nearby

Snow Depth

Not available.

Earthquake Activity

City Distance Mag. Time & Date
No recent earthquake activity has been reported nearby.
Minimum magnitude displayed is 2.5.

Coastal Water Temperatures

Place Temperature
No Stations Reporting

Nearby Weather Stations